Time;durP1;ratioP1;P1;durP2;ratioP2;P2;SDS_P1;SDS_P2;PMS_P1;PMS_P2;Temp;Humidity;BMP_temperature;BMP_pressure;BME280_temperature;BME280_humidity;BME280_pressure;Samples;Min_cycle;Max_cycle;Signal;HPM_P1;HPM_P2
2022/03/31 00:01:34;;;;;;;1.40;1.15;;;3.90;99.90;;;;;;5059901;28;20111;-30
2022/03/31 00:04:00;;;;;;;1.33;0.70;;;3.80;99.90;;;;;;5072426;28;20036;-33
2022/03/31 00:06:29;;;;;;;1.10;1.00;;;3.80;99.90;;;;;;5054339;28;20036;-28
2022/03/31 00:08:55;;;;;;;1.95;0.90;;;3.80;99.90;;;;;;5054317;28;20024;-35
2022/03/31 00:11:21;;;;;;;1.08;0.90;;;3.80;99.90;;;;;;5072902;28;20532;-37
2022/03/31 00:13:47;;;;;;;1.00;0.90;;;3.80;99.90;;;;;;5072663;28;20103;-30
2022/03/31 00:16:13;;;;;;;0.65;0.65;;;3.70;99.90;;;;;;5072372;28;20032;-32
2022/03/31 00:18:39;;;;;;;0.70;0.70;;;3.70;99.90;;;;;;5072424;28;20052;-37
2022/03/31 00:21:05;;;;;;;1.13;0.77;;;3.70;99.90;;;;;;5072943;28;20037;-30
2022/03/31 00:23:31;;;;;;;0.73;0.73;;;3.80;99.90;;;;;;5072528;28;20545;-28
2022/03/31 00:25:57;;;;;;;2.25;0.70;;;3.70;99.90;;;;;;5071741;28;20107;-29
2022/03/31 00:28:23;;;;;;;0.90;0.68;;;3.60;99.90;;;;;;5072572;28;20179;-45
2022/03/31 00:30:49;;;;;;;2.80;1.10;;;3.60;99.90;;;;;;5072138;28;20028;-37
2022/03/31 00:33:15;;;;;;;4.28;2.20;;;3.40;99.90;;;;;;5072724;28;20029;-37
2022/03/31 00:35:41;;;;;;;5.53;1.50;;;3.30;99.90;;;;;;5072238;28;20025;-28
2022/03/31 00:38:06;;;;;;;1.27;1.08;;;3.20;99.90;;;;;;5072497;28;20020;-32
2022/03/31 00:40:33;;;;;;;3.92;0.88;;;3.20;99.90;;;;;;5072622;28;20020;-32
2022/03/31 00:42:59;;;;;;;1.17;1.05;;;3.20;99.90;;;;;;5072461;28;20446;-36
2022/03/31 00:45:27;;;;;;;3.72;1.00;;;3.10;99.90;;;;;;5071981;28;20024;-38
2022/03/31 00:47:54;;;;;;;;;;;3.10;99.90;;;;;;5072390;28;20020;-39
2022/03/31 00:50:22;;;;;;;4.22;1.38;;;3.10;99.90;;;;;;5072134;28;19934;-36
2022/03/31 00:52:48;;;;;;;0.82;0.82;;;3.00;99.90;;;;;;5072451;28;20020;-37
2022/03/31 00:55:16;;;;;;;1.17;0.98;;;3.00;99.90;;;;;;5072634;28;20035;-38
2022/03/31 00:57:45;;;;;;;1.55;1.17;;;3.00;99.90;;;;;;5071817;28;20491;-37
2022/03/31 01:00:14;;;;;;;0.90;0.90;;;3.00;99.90;;;;;;5071968;28;20021;-36
2022/03/31 01:02:43;;;;;;;1.20;1.10;;;2.80;99.90;;;;;;5071630;28;20508;-37
2022/03/31 01:05:09;;;;;;;3.28;0.90;;;2.80;99.90;;;;;;5074087;28;20531;-38
2022/03/31 01:07:37;;;;;;;2.38;1.13;;;2.70;99.90;;;;;;5075912;28;20045;-37
2022/03/31 01:10:04;;;;;;;2.05;1.05;;;2.60;99.90;;;;;;5076035;28;20380;-37
2022/03/31 01:12:30;;;;;;;0.93;0.93;;;2.60;99.90;;;;;;5075619;28;20028;-36
2022/03/31 01:15:14;;;;;;;2.17;1.30;;;2.50;99.90;;;;;;5075670;28;20487;-36
2022/03/31 01:17:42;;;;;;;0.80;0.80;;;2.30;99.90;;;;;;5074270;28;20033;-37
2022/03/31 01:20:11;;;;;;;1.52;1.30;;;2.30;99.90;;;;;;5075731;28;20491;-36
2022/03/31 01:22:37;;;;;;;1.77;1.02;;;2.20;99.90;;;;;;5075560;28;20078;-36
2022/03/31 01:25:06;;;;;;;4.15;1.35;;;2.10;99.90;;;;;;5075525;28;20539;-38
2022/03/31 01:27:38;;;;;;;0.70;0.70;;;2.00;99.90;;;;;;5075252;28;20024;-36
2022/03/31 01:30:08;;;;;;;5.07;0.93;;;1.90;99.90;;;;;;5074963;28;20021;-36
2022/03/31 01:32:34;;;;;;;0.82;0.82;;;1.90;99.90;;;;;;5075484;28;20025;-39
2022/03/31 01:35:00;;;;;;;1.00;0.90;;;1.90;99.90;;;;;;5056664;28;20504;-36
2022/03/31 01:37:25;;;;;;;1.20;1.10;;;1.90;99.90;;;;;;5075257;28;20023;-36
2022/03/31 01:39:51;;;;;;;1.55;1.25;;;1.90;99.90;;;;;;5075480;28;20476;-35
2022/03/31 01:42:17;;;;;;;0.93;0.90;;;1.90;99.90;;;;;;5075423;28;20365;-35
2022/03/31 01:44:43;;;;;;;3.50;1.35;;;1.90;99.90;;;;;;5075449;28;20468;-36
2022/03/31 01:47:09;;;;;;;1.17;1.08;;;1.90;99.90;;;;;;5074621;28;20017;-33
2022/03/31 01:49:37;;;;;;;1.17;1.08;;;1.90;99.90;;;;;;5075204;28;20473;-57
2022/03/31 01:52:03;;;;;;;2.42;1.30;;;1.80;99.90;;;;;;5057176;28;20485;-33
2022/03/31 01:54:30;;;;;;;3.13;1.85;;;1.80;99.90;;;;;;5056342;28;20037;-35
2022/03/31 01:56:56;;;;;;;1.38;1.27;;;1.80;99.90;;;;;;5075282;28;20036;-30
2022/03/31 01:59:22;;;;;;;7.03;1.40;;;1.80;99.90;;;;;;5075123;28;20525;-28
2022/03/31 02:01:48;;;;;;;4.63;1.23;;;1.80;99.90;;;;;;5074252;28;20028;-34
2022/03/31 02:04:15;;;;;;;3.17;1.27;;;1.80;99.90;;;;;;5074833;28;20021;-34
2022/03/31 02:06:41;;;;;;;2.97;1.50;;;1.90;99.90;;;;;;5069300;28;20041;-36
2022/03/31 02:09:07;;;;;;;2.13;1.45;;;1.90;99.90;;;;;;5074920;28;20392;-42
2022/03/31 02:11:33;;;;;;;1.52;1.10;;;1.90;99.90;;;;;;5074845;28;20092;-57
2022/03/31 02:13:59;;;;;;;2.08;1.45;;;1.90;99.90;;;;;;5074400;28;20142;-43
2022/03/31 02:16:24;;;;;;;1.40;1.10;;;1.90;99.90;;;;;;5074062;28;20028;-34
2022/03/31 02:18:50;;;;;;;1.38;1.10;;;2.00;99.90;;;;;;5073977;28;20043;-34
2022/03/31 02:21:16;;;;;;;1.13;1.00;;;2.00;99.90;;;;;;5074742;28;20024;-36
2022/03/31 02:23:41;;;;;;;1.52;1.00;;;2.00;99.90;;;;;;5074346;28;20060;-36
2022/03/31 02:26:07;;;;;;;1.55;1.08;;;2.00;99.90;;;;;;5074865;28;20029;-36
2022/03/31 02:28:33;;;;;;;0.98;0.90;;;2.00;99.90;;;;;;5074021;28;20055;-35
2022/03/31 02:30:58;;;;;;;3.47;0.90;;;2.10;99.90;;;;;;5069179;28;20032;-36
2022/03/31 02:33:24;;;;;;;1.52;0.80;;;2.10;99.90;;;;;;5074294;28;20571;-41
2022/03/31 02:35:50;;;;;;;7.65;1.20;;;2.00;99.90;;;;;;5074415;28;20500;-37
2022/03/31 02:38:16;;;;;;;0.80;0.68;;;2.00;99.90;;;;;;5073943;28;20107;-58
2022/03/31 02:40:42;;;;;;;1.83;0.90;;;1.90;99.90;;;;;;5074182;28;20515;-34
2022/03/31 02:43:08;;;;;;;1.67;1.00;;;1.90;99.90;;;;;;5074105;28;20108;-35
2022/03/31 02:45:34;;;;;;;1.00;0.90;;;1.90;99.90;;;;;;5073877;28;20472;-35
2022/03/31 02:47:59;;;;;;;1.55;1.33;;;1.90;99.90;;;;;;5054581;28;20098;-29
2022/03/31 02:50:25;;;;;;;3.58;1.15;;;1.90;99.90;;;;;;5074043;28;20055;-29
2022/03/31 02:55:34;;;;;;;1.75;1.20;;;1.80;99.90;;;;;;5073193;28;20035;-36
2022/03/31 02:58:02;;;;;;;1.42;1.23;;;1.80;99.90;;;;;;5074122;28;20380;-36
2022/03/31 03:00:31;;;;;;;3.90;2.00;;;1.80;99.90;;;;;;5073828;28;20468;-45
2022/03/31 03:02:57;;;;;;;2.38;1.10;;;1.70;99.90;;;;;;5073599;28;20487;-34
2022/03/31 03:05:23;;;;;;;4.43;1.45;;;1.80;99.90;;;;;;5073544;28;20025;-37
2022/03/31 03:07:48;;;;;;;3.38;1.20;;;1.80;99.90;;;;;;5055258;28;20043;-36
2022/03/31 03:10:14;;;;;;;3.13;1.05;;;1.80;99.90;;;;;;5073534;28;20032;-36
2022/03/31 03:12:41;;;;;;;2.10;1.02;;;1.70;99.90;;;;;;5073951;28;20472;-37
2022/03/31 03:15:09;;;;;;;2.08;1.15;;;1.70;99.90;;;;;;5054911;28;20029;-36
2022/03/31 03:17:39;;;;;;;2.45;1.40;;;1.70;99.90;;;;;;5073228;28;20024;-35
2022/03/31 03:20:05;;;;;;;1.65;0.95;;;1.70;99.90;;;;;;5073572;28;20111;-37
2022/03/31 03:22:32;;;;;;;2.85;1.17;;;1.70;99.90;;;;;;5072893;28;20028;-41
2022/03/31 03:24:59;;;;;;;3.88;1.67;;;1.70;99.90;;;;;;5073044;28;20052;-35
2022/03/31 03:27:25;;;;;;;1.55;1.20;;;1.80;99.90;;;;;;5072321;28;20046;-40
2022/03/31 03:29:51;;;;;;;1.38;1.20;;;1.80;99.90;;;;;;5073359;28;20024;-34
2022/03/31 03:32:17;;;;;;;2.15;1.30;;;1.90;99.90;;;;;;5073413;28;20103;-35
2022/03/31 03:34:43;;;;;;;4.13;2.30;;;1.90;99.90;;;;;;5073293;28;20492;-29
2022/03/31 03:37:08;;;;;;;5.60;1.48;;;1.90;99.90;;;;;;5054835;28;20075;-30
2022/03/31 03:39:34;;;;;;;1.58;1.48;;;1.90;99.90;;;;;;5073114;28;20112;-29
2022/03/31 03:42:01;;;;;;;5.50;1.33;;;1.90;99.90;;;;;;5073282;28;20028;-36
2022/03/31 03:44:27;;;;;;;1.85;1.42;;;1.90;99.90;;;;;;5073304;28;20464;-40
2022/03/31 03:46:53;;;;;;;1.95;1.10;;;1.90;99.90;;;;;;5072711;28;20021;-34
2022/03/31 03:49:18;;;;;;;3.13;2.00;;;1.80;99.90;;;;;;5073499;28;20021;-34
2022/03/31 03:51:44;;;;;;;3.30;1.73;;;1.80;99.90;;;;;;5073073;28;20520;-34
2022/03/31 03:54:10;;;;;;;3.30;1.88;;;1.80;99.90;;;;;;5073053;28;20024;-34
2022/03/31 03:56:36;;;;;;;1.48;1.35;;;1.70;99.90;;;;;;5072773;28;20043;-34
2022/03/31 03:59:01;;;;;;;2.85;1.90;;;1.70;99.90;;;;;;5054387;28;20032;-36
2022/03/31 04:01:27;;;;;;;2.42;1.90;;;1.70;99.90;;;;;;5072833;28;20033;-34
2022/03/31 04:03:52;;;;;;;2.28;1.73;;;1.80;99.90;;;;;;5071984;28;20206;-35
2022/03/31 04:06:18;;;;;;;4.57;1.77;;;1.80;99.90;;;;;;5072645;28;20070;-36
2022/03/31 04:08:44;;;;;;;2.10;1.48;;;1.80;99.90;;;;;;5053925;28;20068;-44
2022/03/31 04:11:09;;;;;;;1.80;1.70;;;1.80;99.90;;;;;;5072567;28;20020;-36
2022/03/31 04:13:35;;;;;;;2.13;1.67;;;1.70;99.90;;;;;;5072941;28;20020;-36
2022/03/31 04:16:01;;;;;;;2.25;1.50;;;1.70;99.90;;;;;;5072538;28;20027;-35
2022/03/31 04:18:26;;;;;;;1.38;1.27;;;1.80;99.90;;;;;;5072344;28;20040;-35
2022/03/31 04:20:52;;;;;;;1.67;1.38;;;1.80;99.90;;;;;;5072678;28;20107;-35
2022/03/31 04:23:17;;;;;;;1.88;1.30;;;1.80;99.90;;;;;;5072678;28;20027;-37
2022/03/31 04:25:43;;;;;;;6.63;1.33;;;1.80;99.90;;;;;;5071990;28;20025;-36
2022/03/31 04:28:08;;;;;;;1.23;1.13;;;1.80;99.90;;;;;;5070421;28;20013;-36
2022/03/31 04:30:34;;;;;;;2.42;1.42;;;1.80;99.90;;;;;;5072536;28;20377;-34
2022/03/31 04:33:00;;;;;;;2.45;1.05;;;1.80;99.90;;;;;;5071763;28;20052;-35
2022/03/31 04:35:25;;;;;;;2.28;1.38;;;1.90;99.90;;;;;;5072576;28;20028;-40
2022/03/31 04:37:51;;;;;;;1.48;1.00;;;1.90;99.90;;;;;;5072090;28;20024;-35
2022/03/31 04:40:16;;;;;;;1.10;1.08;;;1.90;99.90;;;;;;5076238;28;20024;-29
2022/03/31 04:42:42;;;;;;;0.80;0.80;;;1.90;99.90;;;;;;5076623;28;20510;-28
2022/03/31 04:45:09;;;;;;;3.72;1.48;;;1.90;99.90;;;;;;5076173;28;20485;-29
2022/03/31 04:47:35;;;;;;;2.92;1.20;;;2.00;99.90;;;;;;5076319;28;20469;-29
2022/03/31 04:50:01;;;;;;;2.13;0.80;;;2.00;99.90;;;;;;5076178;28;20023;-35
2022/03/31 04:52:26;;;;;;;1.73;1.38;;;2.00;99.90;;;;;;5073303;28;20043;-36
2022/03/31 04:54:52;;;;;;;1.45;1.35;;;2.10;99.90;;;;;;5078251;28;20099;-36
2022/03/31 04:57:18;;;;;;;1.45;1.13;;;2.10;99.90;;;;;;5075837;28;20388;-34
2022/03/31 04:59:44;;;;;;;7.55;1.60;;;2.00;99.90;;;;;;5076140;28;20035;-35
2022/03/31 05:02:12;;;;;;;4.13;1.20;;;2.00;99.90;;;;;;5075776;28;20029;-41
2022/03/31 05:04:37;;;;;;;3.93;1.00;;;2.10;99.90;;;;;;5075855;28;20476;-35
2022/03/31 05:07:04;;;;;;;1.65;0.90;;;2.10;99.90;;;;;;5075896;28;20290;-45
2022/03/31 05:09:30;;;;;;;1.48;1.17;;;2.10;99.90;;;;;;5075879;28;20501;-34
2022/03/31 05:11:56;;;;;;;5.80;1.20;;;2.20;99.90;;;;;;5075182;28;20043;-34
2022/03/31 05:14:22;;;;;;;1.27;0.85;;;2.30;99.90;;;;;;5038073;28;20524;-36
2022/03/31 05:16:48;;;;;;;2.85;0.73;;;2.30;99.90;;;;;;5056115;28;20021;-34
2022/03/31 05:19:13;;;;;;;3.60;1.40;;;2.30;99.90;;;;;;5055908;28;20028;-35
2022/03/31 05:21:39;;;;;;;1.95;0.80;;;2.30;99.90;;;;;;5075357;28;20392;-35
2022/03/31 05:24:05;;;;;;;5.18;1.17;;;2.20;99.90;;;;;;5075637;28;20101;-29
2022/03/31 05:26:31;;;;;;;1.25;1.08;;;2.30;99.90;;;;;;5057492;28;20441;-32
2022/03/31 05:28:56;;;;;;;2.88;1.40;;;2.20;99.90;;;;;;5075549;28;20103;-29
2022/03/31 05:31:22;;;;;;;9.75;1.35;;;2.20;99.90;;;;;;5075419;28;20661;-31
2022/03/31 05:33:48;;;;;;;0.80;0.63;;;2.30;99.90;;;;;;5075052;28;20020;-29
2022/03/31 05:36:13;;;;;;;1.60;1.15;;;2.30;99.90;;;;;;5073957;28;20537;-30
2022/03/31 05:38:39;;;;;;;4.43;1.27;;;2.30;99.90;;;;;;5075211;28;20120;-40
2022/03/31 05:41:04;;;;;;;4.68;1.20;;;2.30;99.90;;;;;;5075233;28;20020;-44
2022/03/31 05:43:30;;;;;;;1.63;1.23;;;2.30;99.90;;;;;;5056489;28;20043;-34
2022/03/31 05:45:56;;;;;;;1.25;1.15;;;2.30;99.90;;;;;;5075187;28;20039;-30
2022/03/31 05:48:21;;;;;;;1.50;0.93;;;2.40;99.90;;;;;;5075413;28;20465;-30
2022/03/31 05:50:47;;;;;;;1.60;0.98;;;2.30;99.90;;;;;;5074133;28;20021;-35
2022/03/31 05:53:13;;;;;;;4.90;1.60;;;2.40;99.90;;;;;;5075079;28;20023;-36
2022/03/31 05:55:43;;;;;;;2.65;2.08;;;2.40;99.90;;;;;;5075101;28;20009;-37
2022/03/31 05:58:09;;;;;;;5.72;1.90;;;2.40;99.90;;;;;;5056648;28;20502;-37
2022/03/31 06:00:35;;;;;;;5.40;1.60;;;2.40;99.90;;;;;;5074728;28;20056;-38
2022/03/31 06:03:00;;;;;;;4.10;1.60;;;2.30;99.90;;;;;;5074796;28;20013;-42
2022/03/31 06:05:26;;;;;;;4.97;1.40;;;2.40;99.90;;;;;;5074888;28;20103;-36
2022/03/31 06:07:52;;;;;;;2.08;1.40;;;2.40;99.90;;;;;;5074517;28;20040;-41
2022/03/31 06:10:22;;;;;;;7.22;2.03;;;2.40;99.90;;;;;;5073975;28;20024;-36
2022/03/31 06:12:47;;;;;;;7.60;2.13;;;2.40;99.90;;;;;;5074543;28;20500;-36
2022/03/31 06:15:15;;;;;;;2.95;1.75;;;2.40;99.90;;;;;;5074778;28;20026;-36
2022/03/31 06:17:42;;;;;;;7.15;1.83;;;2.40;99.90;;;;;;5074955;28;20074;-37
2022/03/31 06:20:09;;;;;;;13.68;1.95;;;2.40;99.90;;;;;;5074278;28;20492;-34
2022/03/31 06:22:35;;;;;;;3.40;1.58;;;2.50;99.90;;;;;;5054171;28;20048;-39
2022/03/31 06:25:01;;;;;;;7.57;1.80;;;2.50;99.90;;;;;;5073660;28;20063;-38
2022/03/31 06:27:27;;;;;;;3.33;1.73;;;2.50;99.90;;;;;;5074429;28;20040;-30
2022/03/31 06:29:53;;;;;;;10.13;1.83;;;2.60;99.90;;;;;;5056925;28;20020;-31
2022/03/31 06:32:19;;;;;;;4.20;2.45;;;2.60;99.90;;;;;;5074508;28;20518;-33
2022/03/31 06:34:45;;;;;;;2.28;1.33;;;2.60;99.90;;;;;;5074036;28;20029;-29
2022/03/31 06:37:11;;;;;;;2.00;1.60;;;2.60;99.90;;;;;;5074245;28;20492;-31
2022/03/31 06:39:37;;;;;;;2.60;1.65;;;2.70;99.90;;;;;;5074101;28;20105;-29
2022/03/31 06:42:04;;;;;;;8.32;1.92;;;2.70;99.90;;;;;;5073961;28;20067;-31
2022/03/31 06:44:31;;;;;;;8.27;1.92;;;2.70;99.90;;;;;;5074110;28;20040;-30
2022/03/31 06:46:56;;;;;;;2.28;1.60;;;2.70;99.90;;;;;;5073954;28;20113;-33
2022/03/31 06:49:23;;;;;;;2.83;1.90;;;2.80;99.90;;;;;;5073233;28;20119;-31
2022/03/31 06:51:50;;;;;;;7.97;2.03;;;2.80;99.90;;;;;;5074271;28;20100;-30
2022/03/31 06:54:18;;;;;;;3.60;1.90;;;2.90;99.90;;;;;;5073417;28;20027;-31
2022/03/31 06:56:44;;;;;;;5.60;1.55;;;3.00;99.90;;;;;;5074076;28;20400;-31
2022/03/31 06:59:09;;;;;;;3.92;1.80;;;3.10;99.90;;;;;;5055632;28;20031;-30
2022/03/31 07:01:35;;;;;;;7.78;2.38;;;3.20;99.90;;;;;;5073300;28;20151;-30
2022/03/31 07:04:01;;;;;;;3.83;2.22;;;3.20;99.90;;;;;;5074072;28;20392;-30
2022/03/31 07:06:26;;;;;;;7.40;2.20;;;3.20;99.90;;;;;;5073173;28;20044;-33
2022/03/31 07:08:52;;;;;;;6.03;3.30;;;3.30;99.90;;;;;;5073776;28;20477;-40
2022/03/31 07:11:18;;;;;;;3.25;1.77;;;3.30;99.90;;;;;;5079395;28;20110;-34
2022/03/31 07:13:43;;;;;;;3.83;2.00;;;3.40;99.90;;;;;;5080469;28;20028;-34
2022/03/31 07:16:09;;;;;;;3.40;1.45;;;3.40;99.90;;;;;;5071923;28;20027;-34
2022/03/31 07:18:35;;;;;;;5.25;1.80;;;3.50;99.90;;;;;;5071951;28;20142;-47
2022/03/31 07:21:02;;;;;;;5.88;1.58;;;3.60;99.90;;;;;;5073292;28;20082;-36
2022/03/31 07:23:28;;;;;;;4.22;2.40;;;3.60;99.90;;;;;;5073976;28;20484;-35
2022/03/31 07:25:55;;;;;;;3.60;1.75;;;3.70;99.90;;;;;;5072481;28;20024;-36
2022/03/31 07:28:21;;;;;;;3.53;1.83;;;3.70;99.90;;;;;;5073026;28;20380;-37
2022/03/31 07:30:47;;;;;;;4.93;1.73;;;3.80;99.90;;;;;;5073363;28;20108;-37
2022/03/31 07:33:14;;;;;;;2.60;1.88;;;3.70;99.90;;;;;;5072184;28;20025;-37
2022/03/31 07:35:41;;;;;;;2.10;1.33;;;3.60;99.90;;;;;;5073152;28;20066;-34
2022/03/31 07:38:08;;;;;;;6.68;1.45;;;3.70;99.90;;;;;;5073214;28;20024;-42
2022/03/31 07:40:36;;;;;;;1.73;1.35;;;3.70;99.90;;;;;;5073522;28;20480;-37
2022/03/31 07:43:02;;;;;;;;;;;3.60;99.90;;;;;;5073635;28;20468;-36
2022/03/31 07:45:28;;;;;;;3.50;1.77;;;3.60;99.90;;;;;;5073115;28;19953;-35
2022/03/31 07:47:54;;;;;;;1.77;1.33;;;3.70;99.90;;;;;;5073429;28;20503;-36
2022/03/31 07:50:21;;;;;;;1.58;1.20;;;3.80;99.90;;;;;;5072419;28;20028;-37
2022/03/31 07:52:46;;;;;;;2.08;1.75;;;3.90;99.90;;;;;;5072849;28;20319;-37
2022/03/31 07:55:13;;;;;;;4.93;1.38;;;4.10;99.90;;;;;;5073011;28;20024;-37
2022/03/31 07:57:39;;;;;;;1.55;1.45;;;4.20;99.90;;;;;;5071919;28;20756;-38
2022/03/31 08:00:07;;;;;;;1.58;1.48;;;4.30;99.90;;;;;;5072234;28;20029;-36
2022/03/31 08:02:33;;;;;;;1.88;1.30;;;4.40;99.90;;;;;;5072578;28;20033;-42
2022/03/31 08:04:58;;;;;;;2.50;1.23;;;4.50;99.90;;;;;;5072159;28;20031;-45
2022/03/31 08:07:24;;;;;;;2.10;1.48;;;4.50;99.90;;;;;;5072221;28;20102;-35
2022/03/31 08:09:49;;;;;;;1.65;1.40;;;4.60;99.90;;;;;;5072773;28;20054;-35
2022/03/31 08:12:16;;;;;;;3.75;1.58;;;4.70;99.90;;;;;;5072686;28;20078;-36
2022/03/31 08:14:42;;;;;;;1.60;1.50;;;4.80;99.90;;;;;;5053940;28;20020;-36
2022/03/31 08:17:08;;;;;;;1.40;1.10;;;4.80;99.90;;;;;;5072735;28;20021;-37
2022/03/31 08:19:34;;;;;;;1.88;1.35;;;4.90;99.90;;;;;;5072410;28;20025;-35
2022/03/31 08:22:01;;;;;;;2.25;1.25;;;5.00;99.90;;;;;;5072292;28;20093;-36
2022/03/31 08:24:27;;;;;;;2.60;1.55;;;5.10;99.90;;;;;;5069758;28;20028;-35
2022/03/31 08:26:52;;;;;;;1.92;0.88;;;5.10;99.90;;;;;;5072420;28;20032;-37
2022/03/31 08:29:18;;;;;;;1.85;1.65;;;5.10;99.90;;;;;;5072017;28;20495;-38
2022/03/31 08:31:44;;;;;;;3.22;1.35;;;5.00;99.90;;;;;;5071182;28;20024;-34
2022/03/31 08:34:10;;;;;;;1.10;1.08;;;5.00;99.90;;;;;;5072427;28;20078;-36
2022/03/31 08:36:36;;;;;;;1.65;1.55;;;5.00;99.90;;;;;;5072125;28;20024;-35
2022/03/31 08:39:03;;;;;;;1.80;1.70;;;5.10;99.90;;;;;;5057457;28;20021;-36
2022/03/31 08:41:28;;;;;;;1.83;1.50;;;5.20;99.90;;;;;;5070644;28;20032;-35
2022/03/31 08:43:55;;;;;;;2.88;2.17;;;5.20;99.90;;;;;;5054259;28;20043;-46
2022/03/31 08:46:23;;;;;;;2.38;1.90;;;5.20;99.90;;;;;;5072251;28;20036;-36
2022/03/31 08:48:49;;;;;;;2.43;2.03;;;5.30;99.90;;;;;;5071574;28;20431;-36
2022/03/31 08:51:15;;;;;;;10.07;2.60;;;5.30;99.90;;;;;;5072429;28;20278;-35
2022/03/31 08:53:41;;;;;;;2.58;2.38;;;5.30;99.90;;;;;;5072569;28;20369;-37
2022/03/31 08:56:10;;;;;;;3.60;2.60;;;5.30;99.90;;;;;;5072508;28;20028;-37
2022/03/31 08:58:36;;;;;;;3.17;2.50;;;5.30;99.90;;;;;;5072100;28;20418;-37
2022/03/31 09:01:02;;;;;;;2.67;2.13;;;5.30;99.90;;;;;;5071531;28;20024;-37
2022/03/31 09:03:38;;;;;;;3.10;2.35;;;5.40;99.90;;;;;;5054146;28;20059;-38
2022/03/31 09:06:04;;;;;;;3.25;2.40;;;5.40;99.90;;;;;;5071416;28;20024;-44
2022/03/31 09:08:33;;;;;;;4.00;2.28;;;5.40;99.90;;;;;;5071281;28;20055;-35
2022/03/31 09:11:00;;;;;;;3.17;2.42;;;5.40;99.90;;;;;;5069978;28;20103;-34
2022/03/31 09:13:28;;;;;;;3.67;2.28;;;5.30;99.90;;;;;;5060661;28;20021;-29
2022/03/31 09:16:01;;;;;;;4.65;2.83;;;5.30;99.90;;;;;;5072027;28;20028;-36
2022/03/31 09:18:29;;;;;;;4.22;2.65;;;5.40;99.90;;;;;;5071847;28;20028;-32
2022/03/31 09:20:57;;;;;;;3.42;2.72;;;5.50;99.90;;;;;;5071420;28;20070;-33
2022/03/31 09:23:28;;;;;;;2.85;2.45;;;5.50;99.90;;;;;;5072112;28;20028;-29
2022/03/31 09:26:02;;;;;;;3.75;2.63;;;5.60;99.90;;;;;;5073097;28;20598;-30
2022/03/31 09:28:28;;;;;;;6.85;2.88;;;5.70;99.90;;;;;;5075157;28;20020;-32
2022/03/31 09:30:55;;;;;;;3.55;2.80;;;5.70;99.90;;;;;;5073885;28;20013;-31
2022/03/31 09:33:33;;;;;;;3.70;2.55;;;5.70;99.90;;;;;;5074933;28;20437;-31
2022/03/31 09:36:04;;;;;;;9.33;3.57;;;5.70;99.90;;;;;;5075588;28;20043;-30
2022/03/31 09:38:33;;;;;;;4.13;3.00;;;5.60;99.90;;;;;;5074418;28;20028;-29
2022/03/31 09:40:59;;;;;;;4.13;3.67;;;5.70;99.90;;;;;;5074757;28;20070;-31
2022/03/31 09:43:25;;;;;;;7.85;3.10;;;5.80;99.90;;;;;;5074948;28;20495;-31
2022/03/31 09:45:51;;;;;;;5.95;3.20;;;5.90;99.90;;;;;;5075363;28;20457;-31
2022/03/31 09:48:21;;;;;;;5.82;3.95;;;6.10;99.90;;;;;;5075507;28;20023;-34
2022/03/31 09:50:49;;;;;;;4.43;3.35;;;6.20;99.90;;;;;;5075762;28;20025;-31
2022/03/31 09:53:15;;;;;;;3.38;3.03;;;6.20;99.90;;;;;;5075674;28;20539;-31
2022/03/31 09:55:44;;;;;;;4.75;3.22;;;6.40;99.90;;;;;;5074347;28;20013;-37
2022/03/31 09:58:18;;;;;;;6.10;3.25;;;6.50;99.90;;;;;;5073277;28;20048;-36
2022/03/31 10:00:45;;;;;;;3.85;3.42;;;6.60;99.90;;;;;;5073476;28;20464;-36
2022/03/31 10:03:17;;;;;;;5.13;3.05;;;6.70;99.90;;;;;;5056760;28;20025;-37
2022/03/31 10:05:45;;;;;;;4.43;3.38;;;6.70;99.90;;;;;;5074963;28;20783;-40
2022/03/31 10:08:12;;;;;;;4.25;3.15;;;6.70;99.90;;;;;;5055290;28;20382;-36
2022/03/31 10:10:38;;;;;;;5.75;3.13;;;6.70;99.90;;;;;;5072368;28;20044;-36
2022/03/31 10:13:25;;;;;;;5.05;3.65;;;6.70;99.90;;;;;;5075011;28;20044;-36
2022/03/31 10:15:59;;;;;;;4.00;3.03;;;6.70;99.90;;;;;;5060070;28;20043;-36
2022/03/31 10:18:25;;;;;;;4.25;3.50;;;6.70;99.90;;;;;;5054931;28;20074;-37
2022/03/31 10:20:59;;;;;;;5.93;3.30;;;6.50;99.90;;;;;;5070611;28;20024;-37
2022/03/31 10:26:27;;;;;;;4.70;3.65;;;6.60;99.90;;;;;;5074567;28;20047;-37
2022/03/31 10:28:55;;;;;;;4.85;3.42;;;6.60;99.90;;;;;;5056155;28;20032;-38
2022/03/31 10:31:21;;;;;;;3.97;3.53;;;6.70;99.90;;;;;;5072950;28;20025;-36
2022/03/31 10:33:52;;;;;;;6.28;4.20;;;6.90;99.90;;;;;;5073318;28;20442;-39
2022/03/31 10:36:20;;;;;;;5.28;3.60;;;7.00;99.90;;;;;;5073401;28;20111;-38
2022/03/31 10:38:52;;;;;;;3.75;2.95;;;7.10;99.90;;;;;;5073319;28;20060;-37
2022/03/31 10:41:18;;;;;;;4.13;3.28;;;7.20;99.90;;;;;;5073812;28;20036;-36
2022/03/31 10:43:48;;;;;;;6.75;3.65;;;7.30;99.90;;;;;;5076318;28;20028;-37
2022/03/31 10:46:19;;;;;;;3.83;2.90;;;7.40;99.90;;;;;;5074565;28;20396;-37
2022/03/31 10:48:53;;;;;;;3.78;3.08;;;7.40;99.90;;;;;;5056429;28;20025;-37
2022/03/31 10:51:29;;;;;;;3.90;3.50;;;7.40;99.90;;;;;;5074319;28;20067;-37
2022/03/31 10:53:55;;;;;;;3.67;3.03;;;7.30;99.90;;;;;;5073608;28;20024;-38
2022/03/31 10:56:27;;;;;;;6.03;3.40;;;7.20;99.90;;;;;;5072966;28;20107;-37
2022/03/31 10:58:58;;;;;;;5.10;3.50;;;7.00;99.90;;;;;;5074353;28;20472;-36
2022/03/31 11:01:30;;;;;;;3.67;2.97;;;6.90;99.90;;;;;;5074324;28;20361;-36
2022/03/31 11:04:01;;;;;;;7.60;4.07;;;6.90;99.90;;;;;;5073689;28;20032;-37
2022/03/31 11:06:28;;;;;;;5.18;3.28;;;7.10;99.90;;;;;;5073877;28;20048;-37
2022/03/31 11:08:54;;;;;;;6.03;2.95;;;7.20;99.90;;;;;;5073127;28;20528;-37
2022/03/31 11:11:30;;;;;;;5.43;3.67;;;7.10;99.90;;;;;;5055863;28;20179;-40
2022/03/31 11:13:58;;;;;;;6.25;3.53;;;6.90;99.90;;;;;;5074182;28;20470;-37
2022/03/31 11:16:37;;;;;;;6.57;3.60;;;6.90;99.90;;;;;;5073896;28;20362;-37
2022/03/31 11:19:04;;;;;;;6.25;3.90;;;6.80;99.90;;;;;;5073389;28;20051;-37
2022/03/31 11:21:42;;;;;;;6.50;3.43;;;6.70;99.90;;;;;;5088719;28;20052;-37
2022/03/31 11:24:09;;;;;;;8.38;4.18;;;6.80;99.90;;;;;;5094280;28;20032;-36
2022/03/31 11:26:43;;;;;;;5.55;3.67;;;6.90;99.90;;;;;;5093790;28;20577;-36
2022/03/31 11:29:11;;;;;;;6.32;3.95;;;7.00;99.90;;;;;;5080968;28;20028;-37
2022/03/31 11:31:41;;;;;;;5.65;3.85;;;7.20;99.90;;;;;;5073054;28;20012;-36
2022/03/31 11:34:23;;;;;;;5.95;3.65;;;7.30;99.90;;;;;;5065772;28;20507;-38
2022/03/31 11:36:51;;;;;;;6.30;3.72;;;7.40;99.90;;;;;;5094044;28;20032;-37
2022/03/31 11:39:20;;;;;;;;;;;7.50;99.90;;;;;;5082233;28;20028;-38
2022/03/31 11:41:46;;;;;;;5.75;2.90;;;7.50;99.90;;;;;;5073076;28;19908;-38
2022/03/31 11:44:12;;;;;;;5.65;3.70;;;7.30;99.90;;;;;;5072604;28;20024;-36
2022/03/31 11:46:43;;;;;;;6.57;3.25;;;7.10;99.90;;;;;;5073222;28;20028;-37
2022/03/31 11:49:20;;;;;;;5.65;3.67;;;6.90;99.90;;;;;;5072589;28;20033;-27
2022/03/31 11:51:55;;;;;;;4.85;3.45;;;6.60;99.90;;;;;;5073182;28;20031;-29
2022/03/31 11:54:23;;;;;;;4.13;3.17;;;6.50;99.90;;;;;;5072884;28;20074;-28
2022/03/31 11:57:02;;;;;;;4.95;3.13;;;6.50;99.90;;;;;;5072744;28;20476;-32
2022/03/31 11:59:29;;;;;;;4.40;3.13;;;6.50;99.90;;;;;;5072235;28;20028;-32
2022/03/31 12:01:55;;;;;;;4.72;3.13;;;6.50;99.90;;;;;;5072738;28;20115;-33
2022/03/31 12:04:24;;;;;;;3.58;3.15;;;6.50;99.90;;;;;;5072995;28;20388;-47
2022/03/31 12:06:52;;;;;;;4.45;2.60;;;6.50;99.90;;;;;;5072515;28;20404;-46
2022/03/31 12:09:20;;;;;;;3.72;2.33;;;6.40;99.90;;;;;;5034563;28;20049;-39
2022/03/31 12:11:48;;;;;;;4.30;2.40;;;6.20;99.90;;;;;;5052641;28;20528;-45
2022/03/31 12:14:14;;;;;;;5.22;2.22;;;6.20;99.90;;;;;;5053294;28;20472;-36
2022/03/31 12:16:45;;;;;;;4.32;3.10;;;6.10;99.90;;;;;;5053040;28;20025;-36
2022/03/31 12:19:11;;;;;;;3.72;2.25;;;6.10;99.90;;;;;;5053304;28;20036;-37
2022/03/31 12:21:58;;;;;;;2.45;1.80;;;6.00;99.90;;;;;;5052681;28;20040;-37
2022/03/31 12:24:24;;;;;;;3.03;1.80;;;6.00;99.90;;;;;;5052860;28;20116;-39
2022/03/31 12:27:00;;;;;;;3.45;2.22;;;6.00;99.90;;;;;;5052960;28;20104;-52
2022/03/31 12:29:34;;;;;;;2.03;1.83;;;6.00;99.90;;;;;;5053175;28;20511;-40
2022/03/31 12:32:11;;;;;;;2.30;2.00;;;5.90;99.90;;;;;;5052327;28;20095;-29
2022/03/31 12:34:39;;;;;;;4.03;2.00;;;5.90;99.90;;;;;;5052075;28;20036;-38
2022/03/31 12:37:06;;;;;;;1.63;1.52;;;5.90;99.90;;;;;;5052728;28;20476;-31
2022/03/31 12:39:40;;;;;;;2.05;1.60;;;5.80;99.90;;;;;;5052763;28;20031;-32
2022/03/31 12:42:08;;;;;;;1.70;1.38;;;5.70;99.90;;;;;;5052987;28;20484;-30
2022/03/31 12:44:41;;;;;;;3.17;1.70;;;5.60;99.90;;;;;;5052768;28;20032;-29
2022/03/31 12:47:09;;;;;;;2.40;1.77;;;5.60;99.90;;;;;;5032678;28;20029;-30
2022/03/31 12:49:37;;;;;;;2.22;1.63;;;5.70;99.90;;;;;;5039836;28;20021;-28
2022/03/31 12:52:14;;;;;;;1.80;1.52;;;5.70;99.90;;;;;;5052168;28;20024;-29
2022/03/31 12:54:41;;;;;;;1.67;1.38;;;5.70;99.90;;;;;;5052656;28;20029;-28
2022/03/31 12:57:20;;;;;;;1.38;1.33;;;5.70;99.90;;;;;;5052190;28;20104;-29
2022/03/31 13:00:08;;;;;;;2.05;1.27;;;5.70;99.90;;;;;;5053917;28;20434;-30
2022/03/31 13:02:38;;;;;;;1.30;1.20;;;5.50;99.90;;;;;;5056027;28;20032;-32
2022/03/31 13:05:05;;;;;;;1.52;1.42;;;5.40;99.90;;;;;;5036462;28;20500;-50